createdAt,value
2023-02-19T15:26:51.525Z,0.80
2023-02-19T15:29:22.111Z,0.50
2023-02-19T15:31:52.212Z,0.60
2023-02-19T15:34:22.164Z,0.55
2023-02-19T15:36:51.525Z,0.50
2023-02-19T15:39:23.383Z,0.70
2023-02-19T15:41:57.548Z,0.75
2023-02-19T15:44:38.542Z,0.80
2023-02-19T15:47:12.778Z,1.10
2023-02-19T15:49:47.595Z,0.82
2023-02-19T15:52:25.414Z,0.70
2023-02-19T15:58:44.276Z,0.70
2023-02-19T16:01:20.015Z,0.80
2023-02-19T16:03:48.177Z,0.70
2023-02-19T16:06:18.458Z,1.35
2023-02-19T16:08:47.738Z,0.75
2023-02-19T16:11:37.880Z,0.70
2023-02-19T16:14:24.010Z,0.88
2023-02-19T16:16:54.854Z,0.70
2023-02-19T16:19:27.042Z,1.13
2023-02-19T16:21:56.935Z,0.85
2023-02-19T16:24:29.962Z,0.90
2023-02-19T16:26:59.039Z,0.82
2023-02-19T16:29:30.370Z,0.73
2023-02-19T16:32:00.707Z,1.00
2023-02-19T16:34:41.531Z,0.90
2023-02-19T16:37:35.494Z,1.48
2023-02-19T16:41:01.655Z,0.90
2023-02-19T16:43:38.575Z,0.82
2023-02-19T16:46:09.963Z,1.10
2023-02-19T16:48:37.909Z,1.00
2023-02-19T16:51:07.453Z,1.30
2023-02-19T16:53:35.758Z,1.05
2023-02-19T16:56:04.236Z,1.00
2023-02-19T16:58:33.405Z,1.20
2023-02-19T17:01:01.735Z,1.40
2023-02-19T17:03:29.623Z,1.10
2023-02-19T17:05:57.841Z,1.20
2023-02-19T17:08:33.707Z,0.93
2023-02-19T17:11:03.326Z,0.80
2023-02-19T17:13:33.094Z,1.10
2023-02-19T17:16:01.823Z,1.13
2023-02-19T17:18:29.914Z,1.10
2023-02-19T17:21:02.200Z,1.02
2023-02-19T17:25:57.961Z,1.08
2023-02-19T17:28:25.960Z,1.00
2023-02-19T17:30:55.394Z,0.90
2023-02-19T17:33:23.261Z,1.40
2023-02-19T17:35:51.097Z,1.05
2023-02-19T17:38:18.905Z,0.90
2023-02-19T17:40:46.784Z,1.00
2023-02-19T17:43:14.629Z,0.98
2023-02-19T17:45:42.662Z,1.02
2023-02-19T17:48:13.834Z,1.00
2023-02-19T17:50:42.198Z,0.90
2023-02-19T17:53:10.482Z,1.70
2023-02-19T17:55:38.297Z,1.20
2023-02-19T17:58:06.096Z,1.30
2023-02-19T18:00:35.223Z,1.70
2023-02-19T18:03:03.214Z,1.00
2023-02-19T18:05:32.366Z,1.30
2023-02-19T18:08:00.563Z,1.08
2023-02-19T18:10:30.350Z,1.70
2023-02-19T18:12:58.242Z,1.70
2023-02-19T18:15:27.433Z,1.80
2023-02-19T18:17:55.915Z,1.40
2023-02-19T18:20:25.506Z,1.52
2023-02-19T18:22:55.463Z,1.30
2023-02-19T18:25:24.281Z,1.30
2023-02-19T18:27:52.339Z,1.10
2023-02-19T18:30:22.641Z,1.38
2023-02-19T18:32:51.260Z,1.45
2023-02-19T18:35:20.661Z,1.10
2023-02-19T18:37:51.413Z,1.10
2023-02-19T18:40:21.021Z,1.27
2023-02-19T18:42:48.859Z,1.08
2023-02-19T18:45:16.789Z,1.10
2023-02-19T18:47:47.333Z,1.30
2023-02-19T18:50:16.300Z,1.30
2023-02-19T18:52:44.148Z,1.40
2023-02-19T18:55:12.692Z,1.52
2023-02-19T18:57:41.852Z,1.40
2023-02-19T19:00:10.624Z,1.58
2023-02-19T19:02:48.771Z,1.70
2023-02-19T19:05:21.219Z,1.60
2023-02-19T19:07:49.200Z,1.33
2023-02-19T19:10:17.237Z,1.50
2023-02-19T19:12:46.396Z,1.40
2023-02-19T19:15:17.023Z,1.45
2023-02-19T19:17:45.913Z,1.20
2023-02-19T19:20:14.583Z,1.30
2023-02-19T19:22:42.442Z,1.02
2023-02-19T19:25:10.606Z,1.13
2023-02-19T19:27:38.453Z,1.40
2023-02-19T19:30:09.407Z,1.40
2023-02-19T19:32:37.240Z,1.30
2023-02-19T19:35:05.746Z,1.15
2023-02-19T19:37:33.626Z,1.20
2023-02-19T19:40:01.502Z,1.38
2023-02-19T19:42:29.477Z,1.75
2023-02-19T19:44:57.447Z,2.30
2023-02-19T19:47:26.694Z,1.42
2023-02-19T19:49:54.558Z,1.10
2023-02-19T19:52:22.474Z,1.50
2023-02-19T19:54:53.852Z,1.48
2023-02-19T19:57:21.815Z,1.47
2023-02-19T19:59:50.962Z,1.60
2023-02-19T20:02:19.522Z,1.23
2023-02-19T20:04:48.807Z,1.30
2023-02-19T20:07:17.050Z,1.20
2023-02-19T20:09:48.762Z,1.27
2023-02-19T20:12:16.808Z,1.33
2023-02-19T20:14:45.581Z,1.70
2023-02-19T20:17:13.729Z,1.17
2023-02-19T20:19:41.547Z,1.42
2023-02-19T20:22:12.188Z,1.25
2023-02-19T20:24:40.014Z,1.30
2023-02-19T20:27:07.885Z,1.30
2023-02-19T20:29:36.178Z,1.40
2023-02-19T20:32:04.117Z,1.45
2023-02-19T20:34:32.241Z,1.73
2023-02-19T20:37:00.202Z,1.63
2023-02-19T20:39:29.824Z,1.50
2023-02-19T20:41:58.745Z,1.45
2023-02-19T20:44:27.356Z,1.42
2023-02-19T20:46:56.632Z,1.50
2023-02-19T20:49:26.224Z,1.40
2023-02-19T20:51:56.000Z,1.33
2023-02-19T20:54:25.993Z,1.30
2023-02-19T20:56:57.641Z,1.25
2023-02-19T20:59:30.439Z,1.20
2023-02-19T21:01:59.085Z,1.45
2023-02-19T21:04:27.403Z,1.42
2023-02-19T21:06:55.294Z,1.45
2023-02-19T21:09:24.040Z,1.23
2023-02-19T21:11:52.143Z,1.67
2023-02-19T21:14:21.488Z,1.30
2023-02-19T21:16:49.669Z,1.20
2023-02-19T21:19:17.597Z,1.50
2023-02-19T21:21:45.438Z,1.33
2023-02-19T21:24:14.236Z,1.30
2023-02-19T21:26:43.402Z,1.55
2023-02-19T21:29:15.601Z,1.50
2023-02-19T21:31:46.679Z,1.48
2023-02-19T21:34:16.757Z,1.27
2023-02-19T21:36:44.885Z,1.45
2023-02-19T21:39:14.745Z,1.65
2023-02-19T21:41:42.843Z,1.33
2023-02-19T21:44:10.734Z,1.48
2023-02-19T21:46:38.737Z,1.63
2023-02-19T21:49:08.218Z,1.35
2023-02-19T21:51:37.635Z,1.48
2023-02-19T21:54:06.918Z,1.48
2023-02-19T21:56:36.718Z,1.73
2023-02-19T21:59:05.060Z,1.30
2023-02-19T22:01:35.129Z,1.10
2023-02-19T22:04:03.226Z,1.33
2023-02-19T22:06:32.825Z,1.20
2023-02-19T22:09:01.357Z,1.42
2023-02-19T22:11:29.574Z,1.38
2023-02-19T22:13:57.535Z,1.40
2023-02-19T22:16:25.865Z,1.42
2023-02-19T22:18:55.512Z,1.60
2023-02-19T22:21:25.133Z,1.40
2023-02-19T22:23:55.792Z,1.17
2023-02-19T22:26:25.609Z,1.30
2023-02-19T22:28:54.004Z,1.23
2023-02-19T22:31:24.534Z,1.38
2023-02-19T22:33:52.519Z,1.10
2023-02-19T22:36:22.535Z,1.40
2023-02-19T22:38:50.778Z,1.38
2023-02-19T22:41:21.141Z,1.60
2023-02-19T22:43:49.636Z,1.38
2023-02-19T22:46:19.918Z,1.33
2023-02-19T22:48:48.102Z,1.48
2023-02-19T22:51:18.391Z,1.65
2023-02-19T22:53:46.855Z,1.38
2023-02-19T22:56:16.601Z,1.40
2023-02-19T22:58:46.245Z,1.30
2023-02-19T23:01:15.581Z,1.30
2023-02-19T23:03:48.082Z,1.50
2023-02-19T23:06:16.688Z,1.73
2023-02-19T23:08:44.993Z,1.25
2023-02-19T23:11:13.284Z,1.50
2023-02-19T23:13:43.036Z,1.20
2023-02-19T23:16:12.531Z,1.50
2023-02-19T23:18:40.492Z,1.23
2023-02-19T23:21:08.937Z,1.30
2023-02-19T23:23:36.841Z,1.30
2023-02-19T23:26:04.926Z,1.23
